Time;durP1;ratioP1;P1;durP2;ratioP2;P2;SDS_P1;SDS_P2;PMS_P1;PMS_P2;Temp;Humidity;BMP_temperature;BMP_pressure;BME280_temperature;BME280_humidity;BME280_pressure;Samples;Min_cycle;Max_cycle;Signal;HPM_P1;HPM_P2
2022/04/22 00:01:29;;;;;;;11.55;8.35;;;;;;;9.82;62.96;100688.69;4979562;28;20432;-89
2022/04/22 00:03:55;;;;;;;9.88;7.72;;;;;;;9.76;63.48;100678.38;4976080;28;20030;-89
2022/04/22 00:06:21;;;;;;;11.27;7.65;;;;;;;9.73;63.52;100677.59;4973890;28;20037;-88
2022/04/22 00:08:46;;;;;;;9.95;7.60;;;;;;;9.71;63.47;100671.50;4987187;28;20026;-89
2022/04/22 00:11:30;;;;;;;9.98;7.20;;;;;;;9.70;64.00;100677.75;4988290;28;20031;-90
2022/04/22 00:13:57;;;;;;;12.35;7.85;;;;;;;9.68;64.02;100676.09;4984410;28;20023;-89
2022/04/22 00:16:23;;;;;;;11.15;8.25;;;;;;;9.63;64.25;100667.50;4975976;28;20114;-89
2022/04/22 00:18:49;;;;;;;11.23;8.40;;;;;;;9.57;64.59;100666.03;4980184;28;20043;-89
2022/04/22 00:21:14;;;;;;;11.27;8.20;;;;;;;9.57;65.45;100673.13;4975437;28;20027;-89
2022/04/22 00:23:40;;;;;;;12.15;8.80;;;;;;;9.50;65.25;100661.09;4976385;28;20089;-89
2022/04/22 00:26:05;;;;;;;13.60;9.00;;;;;;;9.50;65.71;100672.56;4976677;28;20453;-89
2022/04/22 00:28:31;;;;;;;9.95;8.23;;;;;;;9.51;65.27;100673.44;4975507;28;20041;-90
2022/04/22 00:30:56;;;;;;;11.75;8.88;;;;;;;9.44;65.62;100668.41;4976296;28;20487;-89
2022/04/22 00:33:21;;;;;;;10.23;8.48;;;;;;;9.49;65.37;100665.53;4982589;28;20038;-89
2022/04/22 00:35:47;;;;;;;11.65;8.57;;;;;;;9.46;65.79;100660.38;4982440;28;20033;-89
2022/04/22 00:38:13;;;;;;;14.13;8.85;;;;;;;9.46;65.92;100669.19;4987626;28;20177;-89
2022/04/22 00:40:38;;;;;;;12.45;8.85;;;;;;;9.39;66.20;100654.50;4985634;28;20149;-89
2022/04/22 00:43:21;;;;;;;10.32;8.75;;;;;;;9.38;65.91;100662.53;4982124;28;20474;-89
2022/04/22 00:45:47;;;;;;;11.68;8.73;;;;;;;9.33;66.69;100661.91;4975473;28;20439;-89
2022/04/22 00:48:13;;;;;;;12.43;9.30;;;;;;;9.32;66.68;100660.16;4980586;28;20530;-88
2022/04/22 00:50:39;;;;;;;12.50;9.68;;;;;;;9.25;67.31;100661.41;4979281;28;20491;-89
2022/04/22 00:53:06;;;;;;;10.95;9.23;;;;;;;9.22;67.36;100647.34;4964358;28;20107;-90
2022/04/22 00:55:32;;;;;;;11.48;9.48;;;;;;;9.18;67.87;100647.56;4983809;28;20030;-88
2022/04/22 00:57:58;;;;;;;12.52;10.07;;;;;;;9.16;67.91;100650.31;4977162;28;20038;-87
2022/04/22 01:00:24;;;;;;;11.77;8.85;;;;;;;9.12;68.06;100647.88;4980399;28;20035;-89
2022/04/22 01:02:50;;;;;;;11.98;9.63;;;;;;;9.06;68.32;100646.34;4959254;28;20332;-89
2022/04/22 01:10:43;;;;;;;16.10;9.73;;;;;;;9.03;69.06;100649.19;4975782;28;20647;-89
2022/04/22 01:13:09;;;;;;;14.13;9.93;;;;;;;9.00;69.13;100644.00;4981523;28;20113;-89
2022/04/22 01:15:37;;;;;;;12.68;9.82;;;;;;;9.02;69.08;100639.47;4984381;28;20038;-89
2022/04/22 01:18:04;;;;;;;11.05;9.45;;;;;;;9.06;68.99;100632.22;4984317;28;20680;-88
2022/04/22 01:20:29;;;;;;;15.35;10.60;;;;;;;9.05;69.24;100628.72;4986822;28;20779;-89
2022/04/22 01:22:54;;;;;;;13.82;9.52;;;;;;;9.12;68.90;100616.88;4968035;28;20030;-90
2022/04/22 01:25:20;;;;;;;15.15;10.00;;;;;;;9.18;69.03;100628.97;4968883;28;20037;-89
2022/04/22 01:27:49;;;;;;;13.32;10.15;;;;;;;9.24;68.82;100628.69;4965949;28;20042;-90
2022/04/22 01:30:15;;;;;;;17.50;9.43;;;;;;;9.25;68.95;100625.09;4988811;28;20100;-90
2022/04/22 01:32:41;;;;;;;15.82;10.07;;;;;;;9.23;69.03;100626.94;4975485;28;20092;-89
2022/04/22 01:35:06;;;;;;;13.43;10.23;;;;;;;9.15;69.38;100627.31;4973118;28;20027;-90
2022/04/22 01:37:32;;;;;;;13.57;9.90;;;;;;;9.10;69.28;100629.34;4986230;28;20476;-90
2022/04/22 01:39:57;;;;;;;12.77;10.20;;;;;;;9.03;70.05;100619.97;4984073;28;20026;-90
2022/04/22 01:42:23;;;;;;;11.60;9.50;;;;;;;8.97;70.45;100620.25;4969888;28;20031;-89
2022/04/22 01:44:49;;;;;;;12.23;10.13;;;;;;;8.86;70.82;100620.78;4967822;28;20034;-89
2022/04/22 01:47:15;;;;;;;11.02;9.40;;;;;;;8.85;70.72;100621.69;4981923;28;20037;-89
2022/04/22 01:49:40;;;;;;;12.88;9.93;;;;;;;8.82;70.95;100629.81;4981783;28;20430;-89
2022/04/22 01:52:07;;;;;;;14.85;9.50;;;;;;;8.76;71.21;100618.63;4985665;28;20041;-89
2022/04/22 01:54:32;;;;;;;14.77;10.18;;;;;;;8.77;71.16;100628.28;4983289;28;20030;-89
2022/04/22 01:56:57;;;;;;;12.57;10.43;;;;;;;8.72;71.93;100628.50;4979250;28;20488;-89
2022/04/22 01:59:22;;;;;;;15.73;10.60;;;;;;;8.67;71.42;100625.22;4983488;28;20027;-90
2022/04/22 02:01:48;;;;;;;13.95;10.20;;;;;;;8.63;72.03;100613.88;4988401;28;20030;-89
2022/04/22 02:04:13;;;;;;;13.40;10.13;;;;;;;8.62;71.85;100619.28;4979663;28;20439;-89
2022/04/22 02:06:38;;;;;;;14.20;10.65;;;;;;;8.57;72.84;100614.19;4980825;28;20038;-89
2022/04/22 02:09:03;;;;;;;14.48;10.90;;;;;;;8.56;72.61;100616.88;4986448;28;20419;-89
2022/04/22 02:11:29;;;;;;;15.18;10.45;;;;;;;8.54;72.70;100618.75;4977381;28;20026;-89
2022/04/22 02:13:54;;;;;;;15.35;10.48;;;;;;;8.53;73.02;100622.31;4977454;28;20034;-89
2022/04/22 02:16:19;;;;;;;14.85;10.25;;;;;;;8.52;73.02;100620.59;4975938;28;20061;-89
2022/04/22 02:18:44;;;;;;;14.10;10.90;;;;;;;8.49;73.03;100616.31;4952326;28;20210;-89
2022/04/22 02:21:10;;;;;;;15.20;10.68;;;;;;;8.45;73.25;100623.56;4985423;28;20482;-88
2022/04/22 02:23:36;;;;;;;13.88;10.80;;;;;;;8.43;73.84;100606.84;4981493;28;20034;-89
2022/04/22 02:26:03;;;;;;;15.15;11.35;;;;;;;8.42;73.78;100618.38;4977222;28;20036;-90
2022/04/22 02:28:34;;;;;;;14.10;11.02;;;;;;;8.36;73.75;100608.03;4983627;28;20379;-89
2022/04/22 02:31:10;;;;;;;15.15;11.45;;;;;;;8.37;74.28;100619.53;4979540;28;20097;-89
2022/04/22 02:33:40;;;;;;;15.73;10.85;;;;;;;8.36;74.23;100617.75;4978876;28;20412;-89
2022/04/22 02:36:06;;;;;;;17.70;11.30;;;;;;;8.34;74.46;100617.84;4978658;28;20109;-89
2022/04/22 02:38:33;;;;;;;15.50;11.25;;;;;;;8.36;74.29;100613.34;4977689;28;20113;-88
2022/04/22 02:46:28;;;;;;;18.30;12.40;;;;;;;8.27;75.05;100603.13;4983507;28;20104;-90
2022/04/22 02:48:57;;;;;;;15.40;11.90;;;;;;;8.29;75.11;100611.03;4982698;28;20026;-88
2022/04/22 02:51:22;;;;;;;16.20;12.48;;;;;;;8.23;75.14;100601.53;4985423;28;20173;-88
2022/04/22 02:53:47;;;;;;;15.70;11.48;;;;;;;8.21;75.23;100598.09;4978929;28;20113;-88
2022/04/22 02:56:13;;;;;;;17.80;12.15;;;;;;;8.18;75.61;100599.09;4983168;28;20035;-89
2022/04/22 02:58:40;;;;;;;15.07;11.63;;;;;;;8.09;75.72;100593.34;4981296;28;20030;-88
2022/04/22 03:01:05;;;;;;;15.30;11.52;;;;;;;8.08;76.15;100602.25;4990827;28;20039;-89
2022/04/22 03:03:32;;;;;;;17.80;12.43;;;;;;;8.06;76.21;100598.78;4978528;28;20019;-87
2022/04/22 03:05:58;;;;;;;15.25;11.70;;;;;;;8.03;76.32;100591.00;4981719;28;20493;-88
2022/04/22 03:08:23;;;;;;;16.95;12.13;;;;;;;7.98;76.61;100599.13;4979800;28;20031;-88
2022/04/22 03:10:49;;;;;;;18.27;12.55;;;;;;;7.96;77.14;100596.53;4974883;28;20062;-89
2022/04/22 03:13:15;;;;;;;15.80;11.85;;;;;;;7.93;77.14;100595.81;4980095;28;20042;-88
2022/04/22 03:15:41;;;;;;;16.33;11.85;;;;;;;7.92;77.25;100594.09;4979688;28;20030;-88
2022/04/22 03:18:07;;;;;;;16.52;11.98;;;;;;;7.82;77.40;100585.69;4981126;28;20058;-88
2022/04/22 03:20:33;;;;;;;17.48;12.85;;;;;;;7.84;77.16;100582.97;4986998;28;20402;-88
2022/04/22 03:22:58;;;;;;;16.40;11.45;;;;;;;7.85;77.10;100589.97;4988676;28;20071;-88
2022/04/22 03:25:23;;;;;;;15.10;12.32;;;;;;;7.78;77.45;100586.75;4978961;28;20042;-88
2022/04/22 03:27:50;;;;;;;18.67;11.82;;;;;;;7.81;77.42;100583.09;4980388;28;20437;-88
2022/04/22 03:30:16;;;;;;;16.98;12.57;;;;;;;7.73;77.96;100579.00;4990595;28;20236;-89
2022/04/22 03:32:41;;;;;;;16.08;12.02;;;;;;;7.77;77.90;100581.50;4986337;28;20105;-88
2022/04/22 03:35:07;;;;;;;17.83;12.25;;;;;;;7.71;77.79;100577.34;4984492;28;20042;-89
2022/04/22 03:37:32;;;;;;;17.33;12.70;;;;;;;7.71;78.27;100583.50;4969942;28;20566;-88
2022/04/22 03:39:57;;;;;;;18.85;12.38;;;;;;;7.69;78.52;100576.53;4986324;28;20483;-88
2022/04/22 03:42:23;;;;;;;15.20;11.30;;;;;;;7.67;78.39;100581.06;4980333;28;20074;-88
2022/04/22 03:44:48;;;;;;;16.00;12.15;;;;;;;7.66;78.12;100574.03;4981328;28;20126;-90
2022/04/22 03:47:13;;;;;;;20.42;13.30;;;;;;;7.64;78.49;100578.53;4989138;28;20093;-89
2022/04/22 03:49:39;;;;;;;19.23;12.88;;;;;;;7.62;78.91;100583.03;4985357;28;20036;-90
2022/04/22 03:52:04;;;;;;;18.55;13.18;;;;;;;7.59;79.16;100580.53;4986310;28;20081;-89
2022/04/22 03:54:30;;;;;;;17.98;13.10;;;;;;;7.56;79.15;100580.63;4958286;28;20039;-90
2022/04/22 03:59:39;;;;;;;19.27;13.82;;;;;;;7.51;79.60;100566.75;4978549;28;20088;-89
2022/04/22 04:02:05;;;;;;;19.40;13.55;;;;;;;7.46;79.59;100557.19;4975512;28;20038;-88
2022/04/22 04:04:30;;;;;;;21.52;12.93;;;;;;;7.45;79.76;100560.78;4984225;28;20244;-89
2022/04/22 04:06:55;;;;;;;21.52;14.25;;;;;;;7.42;80.24;100560.91;4972891;28;20038;-88
2022/04/22 04:17:38;;;;;;;18.50;13.73;;;;;;;7.39;80.67;100566.31;4987787;28;20053;-88
2022/04/22 04:25:32;;;;;;;20.48;14.07;;;;;;;7.54;79.96;100554.22;4974914;28;20045;-88
2022/04/22 04:27:58;;;;;;;23.00;15.13;;;;;;;7.60;80.11;100566.34;4988563;28;20043;-89
2022/04/22 04:30:23;;;;;;;20.73;14.88;;;;;;;7.63;80.13;100561.78;4983006;28;20034;-88
2022/04/22 04:32:49;;;;;;;21.70;15.25;;;;;;;7.65;80.70;100556.41;4973717;28;20192;-88
2022/04/22 04:35:14;;;;;;;21.25;14.60;;;;;;;7.68;79.85;100543.88;4986399;28;20030;-88
2022/04/22 04:37:41;;;;;;;20.65;15.88;;;;;;;7.73;80.33;100560.47;4987891;28;20040;-88
2022/04/22 04:40:07;;;;;;;19.90;14.45;;;;;;;7.81;79.69;100551.31;4988163;28;20041;-88
2022/04/22 04:42:33;;;;;;;21.92;14.27;;;;;;;7.86;79.63;100563.44;4953034;28;20051;-88
2022/04/22 04:44:58;;;;;;;20.73;14.40;;;;;;;7.89;79.90;100560.63;4985790;28;20026;-88
2022/04/22 04:47:23;;;;;;;23.80;15.57;;;;;;;7.90;79.65;100570.31;4983394;28;20480;-87
2022/04/22 04:49:48;;;;;;;22.27;15.85;;;;;;;7.87;79.83;100553.69;4973888;28;20035;-87
2022/04/22 04:52:14;;;;;;;21.05;14.95;;;;;;;7.90;80.20;100556.19;4978825;28;20058;-87
2022/04/22 04:54:40;;;;;;;22.08;15.13;;;;;;;7.92;79.78;100554.34;4959820;28;20026;-88
2022/04/22 04:57:06;;;;;;;24.63;15.85;;;;;;;7.89;80.00;100547.38;4983367;28;20026;-88
2022/04/22 04:59:32;;;;;;;21.13;14.80;;;;;;;7.80;80.05;100539.00;4974959;28;20046;-88
2022/04/22 05:01:57;;;;;;;25.08;16.52;;;;;;;7.81;80.62;100554.81;4976096;28;20119;-90
2022/04/22 05:04:23;;;;;;;21.95;15.88;;;;;;;7.78;80.63;100546.16;4986865;28;20034;-88
2022/04/22 05:06:48;;;;;;;22.67;16.23;;;;;;;7.69;80.70;100542.97;4985490;28;20034;-88
2022/04/22 05:09:13;;;;;;;26.25;16.30;;;;;;;7.77;80.95;100555.88;4979242;28;20283;-88
2022/04/22 05:11:39;;;;;;;24.77;16.65;;;;;;;7.76;81.27;100554.16;4954172;28;20333;-88
2022/04/22 05:14:04;;;;;;;26.15;17.20;;;;;;;7.78;81.10;100554.09;4973331;28;20046;-88
2022/04/22 05:16:29;;;;;;;24.58;16.92;;;;;;;7.78;81.57;100552.31;4984034;28;20509;-87
2022/04/22 05:18:54;;;;;;;27.95;18.60;;;;;;;7.79;81.46;100555.81;4986750;28;20038;-89
2022/04/22 05:21:20;;;;;;;26.35;17.42;;;;;;;7.80;81.40;100558.38;4978318;28;20110;-88
2022/04/22 05:23:45;;;;;;;24.70;17.80;;;;;;;7.84;81.43;100557.34;4981614;28;21275;-93
2022/04/22 05:26:10;;;;;;;25.70;17.38;;;;;;;7.87;81.50;100562.50;4988343;28;20488;-91
2022/04/22 05:28:35;;;;;;;27.50;18.63;;;;;;;7.89;81.53;100565.06;4986011;28;20034;-90
2022/04/22 05:33:45;;;;;;;25.42;18.58;;;;;;;7.97;81.36;100568.25;4964399;28;20052;-89
2022/04/22 05:36:10;;;;;;;26.27;18.50;;;;;;;8.02;81.52;100565.38;4981153;28;20383;-87
2022/04/22 05:38:36;;;;;;;28.15;18.52;;;;;;;8.08;81.53;100560.69;4979228;28;20519;-88
2022/04/22 05:41:01;;;;;;;29.10;19.85;;;;;;;8.19;81.07;100563.72;4978400;28;20109;-89
2022/04/22 05:43:28;;;;;;;26.70;18.90;;;;;;;8.28;80.94;100562.44;4988091;28;20033;-90
2022/04/22 05:45:56;;;;;;;29.85;19.52;;;;;;;8.39;80.29;100562.81;4974632;28;20035;-88
2022/04/22 05:48:22;;;;;;;31.73;19.30;;;;;;;8.54;80.14;100568.34;4972921;28;20031;-88
2022/04/22 05:50:47;;;;;;;26.88;18.35;;;;;;;8.63;79.81;100562.63;4967599;28;20319;-88
2022/04/22 05:53:12;;;;;;;28.17;18.95;;;;;;;8.70;79.56;100556.09;4987957;28;20068;-89
2022/04/22 05:55:38;;;;;;;26.90;18.35;;;;;;;8.86;79.36;100569.47;4979314;28;20042;-89
2022/04/22 05:58:03;;;;;;;25.60;18.27;;;;;;;9.01;78.80;100570.53;4991432;28;20092;-90
2022/04/22 06:00:31;;;;;;;26.30;18.73;;;;;;;9.12;78.36;100576.19;4987565;28;20030;-90
2022/04/22 06:02:56;;;;;;;28.75;19.77;;;;;;;9.20;77.66;100574.00;4979996;28;20034;-89
2022/04/22 06:05:23;;;;;;;25.80;19.15;;;;;;;9.27;77.42;100574.56;4968954;28;20032;-89
2022/04/22 06:10:33;;;;;;;28.63;19.45;;;;;;;9.42;76.79;100565.84;4983160;28;20049;-88
2022/04/22 06:13:00;;;;;;;26.15;19.65;;;;;;;9.53;76.80;100562.59;4955224;28;20034;-89
2022/04/22 06:15:25;;;;;;;27.65;18.70;;;;;;;9.57;76.36;100559.75;4979704;28;20030;-90
2022/04/22 06:17:51;;;;;;;27.10;19.40;;;;;;;9.71;76.14;100569.66;4976596;28;20088;-90
2022/04/22 06:20:17;;;;;;;30.05;20.42;;;;;;;9.89;75.52;100573.16;4974914;28;20030;-90
2022/04/22 06:22:42;;;;;;;29.20;19.80;;;;;;;10.03;74.89;100564.44;4975334;28;20033;-90
2022/04/22 06:25:09;;;;;;;26.90;19.73;;;;;;;10.20;74.70;100564.44;4966338;28;20026;-90
2022/04/22 06:27:39;;;;;;;26.88;19.60;;;;;;;10.30;73.99;100568.31;4988125;28;20035;-90
2022/04/22 06:30:07;;;;;;;27.00;19.27;;;;;;;10.36;73.77;100567.13;4989923;28;20439;-90
2022/04/22 06:32:32;;;;;;;25.00;19.70;;;;;;;10.47;73.27;100570.94;4987825;28;20030;-90
2022/04/22 06:34:58;;;;;;;26.63;19.05;;;;;;;10.55;72.85;100562.53;4978401;28;20101;-89
2022/04/22 06:37:23;;;;;;;24.00;18.98;;;;;;;10.64;72.32;100561.16;4987059;28;20109;-88
2022/04/22 06:48:01;;;;;;;26.05;20.02;;;;;;;10.97;71.33;100569.06;4986172;28;20045;-89
2022/04/22 06:50:27;;;;;;;26.90;19.00;;;;;;;11.20;71.03;100559.72;4970152;28;20035;-89
2022/04/22 06:52:52;;;;;;;25.23;19.52;;;;;;;11.35;69.96;100568.66;4981004;28;20031;-89
2022/04/22 06:55:18;;;;;;;25.20;18.73;;;;;;;11.48;69.25;100561.66;4985803;28;20086;-89
2022/04/22 06:57:50;;;;;;;24.65;17.98;;;;;;;11.68;69.19;100565.78;4974792;28;20152;-90
2022/04/22 07:00:18;;;;;;;28.40;19.65;;;;;;;11.69;68.25;100557.69;4969273;28;20040;-90
2022/04/22 07:02:45;;;;;;;27.10;18.67;;;;;;;11.75;68.03;100556.50;4977605;28;20026;-89
2022/04/22 07:05:11;;;;;;;27.35;19.85;;;;;;;11.81;68.02;100561.44;4968578;28;20195;-90
2022/04/22 07:07:36;;;;;;;25.58;18.80;;;;;;;11.99;67.67;100561.31;4987346;28;20026;-89
2022/04/22 07:10:02;;;;;;;26.80;19.38;;;;;;;12.29;66.34;100559.44;4987754;28;20026;-90
2022/04/22 07:12:28;;;;;;;26.77;18.75;;;;;;;12.37;65.66;100549.13;4982387;28;20108;-90
2022/04/22 07:15:03;;;;;;;25.40;19.17;;;;;;;12.74;65.14;100562.78;4970221;28;20042;-91
2022/04/22 07:17:37;;;;;;;24.38;18.30;;;;;;;12.88;64.41;100549.41;4988032;28;20019;-90
2022/04/22 07:20:05;;;;;;;;;;;;;;;12.82;64.55;100551.59;4989325;28;20027;-90
2022/04/22 07:22:31;;;;;;;25.20;18.98;;;;;;;12.61;64.19;100545.84;4984485;28;19931;-90
2022/04/22 07:24:57;;;;;;;24.17;17.95;;;;;;;12.95;63.74;100550.69;4982371;28;20043;-90
2022/04/22 07:27:30;;;;;;;26.65;18.50;;;;;;;13.33;62.75;100538.47;4970615;28;20046;-90
2022/04/22 07:29:58;;;;;;;22.83;18.38;;;;;;;13.80;61.21;100543.28;4989640;28;20033;-90
2022/04/22 07:32:23;;;;;;;25.27;18.73;;;;;;;14.09;60.11;100543.91;4982605;28;20475;-90
2022/04/22 07:34:49;;;;;;;24.30;19.67;;;;;;;14.32;59.24;100536.91;4986437;28;20065;-89
2022/04/22 07:37:14;;;;;;;25.92;18.63;;;;;;;14.29;59.03;100539.81;4990060;28;20364;-89
2022/04/22 07:39:40;;;;;;;24.42;18.42;;;;;;;14.55;58.22;100539.81;4955250;28;20441;-91
2022/04/22 07:42:07;;;;;;;22.25;17.30;;;;;;;14.82;56.94;100532.44;4985983;28;20040;-90
2022/04/22 07:47:19;;;;;;;20.40;16.88;;;;;;;15.01;56.09;100526.59;4990378;28;20101;-90
2022/04/22 07:49:44;;;;;;;20.90;16.48;;;;;;;14.73;56.35;100543.84;4989656;28;20121;-91
2022/04/22 07:52:09;;;;;;;22.02;15.80;;;;;;;14.60;56.54;100543.88;4989546;28;20117;-90
2022/04/22 07:54:34;;;;;;;19.80;15.20;;;;;;;14.96;55.47;100542.13;4982562;28;20049;-90
2022/04/22 07:57:00;;;;;;;19.02;15.30;;;;;;;15.25;53.91;100547.16;4987233;28;20030;-89
2022/04/22 07:59:26;;;;;;;20.38;15.82;;;;;;;15.16;54.59;100540.66;4982505;28;20117;-90
2022/04/22 08:01:52;;;;;;;19.83;15.98;;;;;;;14.80;55.36;100533.53;4985704;28;20053;-89
2022/04/22 08:04:17;;;;;;;19.88;16.13;;;;;;;14.66;56.26;100534.53;4967822;28;20026;-89
2022/04/22 08:06:42;;;;;;;18.88;15.48;;;;;;;14.49;56.40;100534.91;4972340;28;20118;-90
2022/04/22 08:09:07;;;;;;;19.65;16.30;;;;;;;14.18;57.11;100535.22;4990418;28;20290;-89
2022/04/22 08:11:34;;;;;;;18.58;15.20;;;;;;;13.79;57.69;100530.84;4982144;28;20034;-90
2022/04/22 08:13:59;;;;;;;22.88;17.02;;;;;;;13.59;59.23;100534.06;4990076;28;20077;-89
2022/04/22 08:16:24;;;;;;;19.77;16.52;;;;;;;13.34;59.23;100527.69;4990672;28;20105;-89
2022/04/22 08:18:50;;;;;;;19.70;16.30;;;;;;;13.15;60.38;100536.03;4980948;28;20162;-91
2022/04/22 08:21:15;;;;;;;21.15;16.70;;;;;;;13.17;61.19;100533.28;4977734;28;20068;-90
2022/04/22 08:23:40;;;;;;;20.00;15.95;;;;;;;13.09;61.07;100533.78;4989727;28;20038;-90
2022/04/22 08:26:07;;;;;;;20.95;15.88;;;;;;;13.02;60.73;100527.13;4988602;28;20041;-90
2022/04/22 08:28:32;;;;;;;19.95;16.33;;;;;;;12.93;61.24;100525.91;4989643;28;20045;-90
2022/04/22 08:30:57;;;;;;;19.63;15.48;;;;;;;13.04;61.09;100527.91;4985881;28;20600;-90
2022/04/22 08:33:23;;;;;;;21.27;15.63;;;;;;;13.08;61.21;100523.19;4989893;28;20053;-90
2022/04/22 08:35:48;;;;;;;19.60;15.30;;;;;;;13.16;61.17;100504.81;4989274;28;20030;-91
2022/04/22 08:38:13;;;;;;;18.83;14.60;;;;;;;14.13;58.57;100489.22;4990154;28;20465;-90
2022/04/22 08:40:39;;;;;;;18.80;13.43;;;;;;;15.28;54.84;100485.25;4968802;28;20038;-91
2022/04/22 08:43:06;;;;;;;17.95;14.05;;;;;;;16.33;52.80;100493.09;4988963;28;20480;-91
2022/04/22 08:45:33;;;;;;;24.05;14.55;;;;;;;17.56;48.97;100496.41;4973494;28;20443;-91
2022/04/22 08:50:50;;;;;;;16.02;13.73;;;;;;;18.02;47.10;100519.38;4985670;28;20134;-89
2022/04/22 08:53:21;;;;;;;15.85;13.25;;;;;;;18.59;45.74;100507.97;4985506;28;20019;-90
2022/04/22 08:55:49;;;;;;;14.73;13.05;;;;;;;19.19;43.31;100523.28;4985451;28;20050;-90
2022/04/22 08:58:17;;;;;;;16.42;12.73;;;;;;;19.58;42.69;100510.63;4990268;28;20077;-91
2022/04/22 09:00:43;;;;;;;14.50;12.95;;;;;;;19.76;42.44;100513.47;4961648;28;20038;-90
2022/04/22 09:03:09;;;;;;;15.38;13.75;;;;;;;19.82;41.61;100508.34;4984108;28;20022;-89
2022/04/22 09:05:35;;;;;;;13.80;12.35;;;;;;;18.70;42.92;100493.56;4987456;28;20042;-90
2022/04/22 09:08:06;;;;;;;13.80;12.20;;;;;;;17.89;45.31;100508.81;4989648;28;20158;-88
2022/04/22 09:10:32;;;;;;;13.73;11.35;;;;;;;17.43;44.89;100492.06;4982475;28;20022;-89
2022/04/22 09:12:58;;;;;;;14.82;11.80;;;;;;;17.10;46.63;100506.53;4986091;28;20040;-90
2022/04/22 09:15:26;;;;;;;14.35;12.25;;;;;;;17.02;46.33;100503.63;4988950;28;20026;-90
2022/04/22 09:17:57;;;;;;;15.45;12.40;;;;;;;16.85;47.30;100499.66;4988147;28;20407;-89
2022/04/22 09:20:28;;;;;;;14.65;12.18;;;;;;;16.99;47.13;100493.13;4985053;28;20030;-90
2022/04/22 09:22:55;;;;;;;15.75;12.63;;;;;;;16.40;48.84;100475.53;4982116;28;20114;-89
2022/04/22 09:25:25;;;;;;;15.32;13.35;;;;;;;15.95;49.87;100490.78;4972760;28;20042;-89
2022/04/22 09:27:51;;;;;;;15.05;12.93;;;;;;;16.23;49.64;100491.28;4987821;28;20049;-89
2022/04/22 09:30:17;;;;;;;14.55;12.68;;;;;;;16.37;48.93;100488.34;4985741;28;20056;-90
2022/04/22 09:32:44;;;;;;;15.05;13.00;;;;;;;15.93;49.93;100488.22;4988583;28;20026;-90
2022/04/22 09:35:16;;;;;;;13.82;12.35;;;;;;;15.32;50.25;100482.22;4988766;28;20038;-90
2022/04/22 09:43:45;;;;;;;14.13;11.63;;;;;;;16.91;46.68;100466.00;4987953;28;20029;-90
2022/04/22 09:46:24;;;;;;;14.00;11.35;;;;;;;19.62;42.52;100442.72;4983770;28;20042;-90
2022/04/22 09:48:50;;;;;;;15.02;11.38;;;;;;;21.17;37.87;100441.03;4982730;28;20030;-90
2022/04/22 09:51:27;;;;;;;14.18;11.63;;;;;;;22.05;36.22;100457.22;4973010;28;20683;-89
2022/04/22 09:54:14;;;;;;;13.98;11.23;;;;;;;20.77;38.44;100447.72;4987837;28;20037;-89
2022/04/22 09:56:54;;;;;;;12.40;10.98;;;;;;;19.29;40.49;100448.59;4982405;28;20030;-89
2022/04/22 09:59:25;;;;;;;14.02;12.35;;;;;;;17.71;43.73;100451.16;4984415;28;20042;-90
2022/04/22 10:01:51;;;;;;;12.77;11.48;;;;;;;16.71;46.04;100448.81;4975328;28;20035;-89
2022/04/22 10:04:20;;;;;;;15.00;12.90;;;;;;;15.97;48.47;100453.06;4986414;28;20275;-88
2022/04/22 10:06:46;;;;;;;14.27;12.77;;;;;;;15.54;50.01;100456.44;4988353;28;20076;-89
2022/04/22 10:09:15;;;;;;;16.55;12.50;;;;;;;15.25;50.64;100456.84;4985556;28;20034;-89
2022/04/22 10:11:47;;;;;;;14.23;12.60;;;;;;;15.14;51.12;100462.19;4972969;28;20038;-89
2022/04/22 10:14:13;;;;;;;15.50;12.68;;;;;;;15.07;50.84;100451.06;4978204;28;20030;-88
2022/04/22 10:16:38;;;;;;;15.88;12.48;;;;;;;14.90;51.44;100444.31;4987881;28;20084;-89
2022/04/22 10:19:05;;;;;;;14.15;12.30;;;;;;;14.90;51.91;100438.09;4983106;28;20033;-88
2022/04/22 10:21:31;;;;;;;14.50;12.73;;;;;;;15.06;51.37;100441.31;4976520;28;20037;-89
2022/04/22 10:23:56;;;;;;;14.18;12.68;;;;;;;15.54;50.93;100427.78;4988130;28;20034;-89
2022/04/22 10:26:23;;;;;;;13.55;11.98;;;;;;;16.14;49.55;100423.06;4987542;28;20078;-89
2022/04/22 10:28:49;;;;;;;14.35;12.25;;;;;;;16.40;48.41;100415.56;4979738;28;20026;-89
2022/04/22 10:31:16;;;;;;;14.68;13.02;;;;;;;16.77;47.67;100432.22;4976079;28;20784;-89
2022/04/22 10:33:45;;;;;;;16.15;13.48;;;;;;;17.41;45.02;100417.84;4987779;28;20031;-89
2022/04/22 10:36:16;;;;;;;13.93;12.40;;;;;;;18.32;44.08;100425.06;4988535;28;20065;-88
2022/04/22 10:38:43;;;;;;;13.60;12.20;;;;;;;19.50;40.60;100416.03;4988020;28;20037;-89
2022/04/22 10:41:32;;;;;;;14.35;12.85;;;;;;;19.22;41.07;100423.16;4987528;28;20057;-90
2022/04/22 10:49:37;;;;;;;14.60;12.88;;;;;;;17.02;45.03;100408.66;4984766;28;20116;-90
2022/04/22 10:52:15;;;;;;;15.65;13.18;;;;;;;16.80;45.35;100406.91;4976315;28;20049;-90
2022/04/22 10:54:52;;;;;;;15.23;13.63;;;;;;;16.76;45.51;100419.78;4981119;28;20044;-89
2022/04/22 10:57:24;;;;;;;15.23;13.02;;;;;;;17.13;44.58;100414.81;4987168;28;20022;-89
2022/04/22 11:00:27;;;;;;;14.98;12.73;;;;;;;17.67;43.96;100412.88;4979689;28;20050;-89
2022/04/22 11:03:01;;;;;;;15.45;12.93;;;;;;;17.41;43.83;100415.16;4975737;28;20026;-90
2022/04/22 11:05:30;;;;;;;14.73;13.23;;;;;;;17.08;44.50;100418.91;4985888;28;20125;-88
2022/04/22 11:07:56;;;;;;;15.00;13.50;;;;;;;16.61;45.45;100402.22;4985951;28;20089;-93
2022/04/22 11:10:48;;;;;;;15.20;13.25;;;;;;;16.45;46.41;100402.63;4981127;28;20112;-93
2022/04/22 11:13:33;;;;;;;13.95;12.45;;;;;;;16.46;46.48;100398.94;4982084;28;20477;-92
2022/04/22 11:15:59;;;;;;;13.77;12.45;;;;;;;16.24;45.72;100401.69;4979745;28;20489;-91
2022/04/22 11:18:26;;;;;;;17.17;12.98;;;;;;;15.95;46.15;100388.78;4982892;28;20026;-89
2022/04/22 11:20:58;;;;;;;12.88;11.50;;;;;;;15.84;46.69;100396.84;4991680;28;20495;-87
2022/04/22 11:23:23;;;;;;;15.40;12.45;;;;;;;15.68;46.67;100394.56;4996824;28;20287;-88
2022/04/22 11:25:51;;;;;;;14.98;13.00;;;;;;;15.45;47.54;100397.16;4992019;28;20031;-87
2022/04/22 11:28:19;;;;;;;14.88;12.85;;;;;;;15.16;47.53;100403.94;4990577;28;20201;-88
2022/04/22 11:30:44;;;;;;;14.65;12.93;;;;;;;14.91;48.62;100391.56;4971598;28;20030;-87
2022/04/22 11:33:18;;;;;;;14.30;12.75;;;;;;;14.93;48.57;100403.88;4983423;28;20053;-87
2022/04/22 11:35:47;;;;;;;15.63;13.00;;;;;;;14.86;48.80;100393.75;4982378;28;20026;-88
2022/04/22 11:38:13;;;;;;;15.07;12.88;;;;;;;14.98;48.99;100386.59;4981854;28;20034;-88
2022/04/22 11:40:39;;;;;;;16.20;12.88;;;;;;;14.99;48.71;100390.97;4965290;28;20031;-87
2022/04/22 11:43:12;;;;;;;15.18;12.45;;;;;;;15.12;48.68;100399.78;4980982;28;20435;-93
2022/04/22 11:45:42;;;;;;;14.50;13.00;;;;;;;15.31;48.56;100388.50;4988094;28;20112;-92
2022/04/22 11:48:09;;;;;;;13.88;12.48;;;;;;;15.75;48.30;100382.34;4976645;28;20492;-91
2022/04/22 11:50:39;;;;;;;14.85;13.15;;;;;;;16.13;46.86;100381.94;4975124;28;20086;-91
2022/04/22 11:53:13;;;;;;;16.60;12.55;;;;;;;16.32;46.36;100373.22;4985702;28;20038;-93
2022/04/22 11:55:38;;;;;;;16.10;13.00;;;;;;;16.50;46.56;100378.91;4983085;28;20372;-92
2022/04/22 11:58:03;;;;;;;16.13;12.50;;;;;;;16.60;46.18;100389.75;4988252;28;20017;-90
2022/04/22 12:05:57;;;;;;;;;;;;;;;18.85;42.16;100369.97;4992448;28;20060;-90
2022/04/22 12:08:22;;;;;;;15.88;12.70;;;;;;;19.54;39.64;100366.16;4982482;28;20503;-91
2022/04/22 12:10:50;;;;;;;13.63;12.23;;;;;;;19.11;40.46;100367.53;4975206;28;20744;-89
2022/04/22 12:13:17;;;;;;;14.18;12.77;;;;;;;18.48;41.51;100350.94;4969010;28;20044;-89
2022/04/22 12:15:48;;;;;;;15.23;13.18;;;;;;;18.31;41.92;100372.19;4988060;28;20034;-92
2022/04/22 12:18:34;;;;;;;14.82;12.65;;;;;;;17.56;43.40;100369.94;4987703;28;20109;-93